Time;durP1;ratioP1;P1;durP2;ratioP2;P2;SDS_P1;SDS_P2;PMS_P1;PMS_P2;Temp;Humidity;BMP_temperature;BMP_pressure;BME280_temperature;BME280_humidity;BME280_pressure;Samples;Min_cycle;Max_cycle;Signal;HPM_P1;HPM_P2
2021/06/29 00:01:14;;;;;;;5.88;3.08;;;;;;;20.80;100.00;100303.69;5192295;28;20021;-78
2021/06/29 00:03:45;;;;;;;14.82;3.83;;;;;;;20.24;100.00;100309.22;5192316;28;20037;-78
2021/06/29 00:06:15;;;;;;;16.30;3.53;;;;;;;20.02;100.00;100315.41;5192916;28;20404;-77
2021/06/29 00:08:45;;;;;;;16.02;3.53;;;;;;;20.22;100.00;100312.00;5193677;28;20053;-77
2021/06/29 00:11:16;;;;;;;12.02;3.35;;;;;;;19.63;100.00;100315.78;5191514;28;20091;-77
2021/06/29 00:13:46;;;;;;;17.10;3.47;;;;;;;19.43;100.00;100315.63;5182761;28;20029;-77
2021/06/29 00:16:17;;;;;;;17.27;3.45;;;;;;;19.37;100.00;100314.28;5190215;28;20059;-78
2021/06/29 00:18:48;;;;;;;10.65;3.25;;;;;;;19.39;100.00;100315.00;5186091;28;20484;-78
2021/06/29 00:21:18;;;;;;;5.55;2.90;;;;;;;19.45;100.00;100311.06;5180518;28;20061;-77
2021/06/29 00:23:48;;;;;;;5.38;2.85;;;;;;;19.93;100.00;100308.09;5192720;28;20051;-78
2021/06/29 00:26:19;;;;;;;10.43;3.40;;;;;;;19.92;100.00;100311.72;5190628;28;20030;-78
2021/06/29 00:28:49;;;;;;;8.95;3.22;;;;;;;19.87;100.00;100327.16;5192896;28;20115;-78
2021/06/29 00:31:20;;;;;;;14.85;3.60;;;;;;;19.62;100.00;100332.66;5189444;28;20116;-78
2021/06/29 00:33:50;;;;;;;11.63;3.40;;;;;;;19.52;100.00;100336.13;5188642;28;20029;-78
2021/06/29 00:36:20;;;;;;;10.30;3.30;;;;;;;19.78;100.00;100338.47;5174815;28;20366;-78
2021/06/29 00:38:51;;;;;;;7.88;3.17;;;;;;;19.92;100.00;100343.56;5186556;28;20068;-78
2021/06/29 00:41:21;;;;;;;12.57;2.88;;;;;;;20.14;100.00;100345.44;5189382;28;20025;-78
2021/06/29 00:43:53;;;;;;;12.18;3.08;;;;;;;20.37;100.00;100336.50;5180493;28;20052;-78
2021/06/29 00:46:23;;;;;;;12.85;3.40;;;;;;;20.15;100.00;100341.81;5189455;28;20032;-78
2021/06/29 00:48:54;;;;;;;6.82;2.90;;;;;;;20.22;100.00;100329.75;5185362;28;20029;-78
2021/06/29 00:51:24;;;;;;;9.65;2.80;;;;;;;20.22;100.00;100332.38;5181758;28;20036;-78
2021/06/29 00:53:54;;;;;;;10.20;3.42;;;;;;;20.16;100.00;100325.75;5191649;28;20441;-78
2021/06/29 00:56:25;;;;;;;14.77;3.15;;;;;;;20.11;100.00;100319.97;5189904;28;20088;-78
2021/06/29 00:58:55;;;;;;;24.85;4.38;;;;;;;20.08;100.00;100325.53;5185947;28;20022;-78
2021/06/29 01:01:25;;;;;;;38.92;5.00;;;;;;;19.53;100.00;100338.69;5183145;28;20080;-78
2021/06/29 01:03:56;;;;;;;23.70;3.60;;;;;;;19.76;100.00;100331.63;5185929;28;20057;-78
2021/06/29 01:06:28;;;;;;;30.00;4.00;;;;;;;19.72;100.00;100323.03;5184721;28;20034;-78
2021/06/29 01:08:59;;;;;;;22.05;4.15;;;;;;;19.50;100.00;100325.66;5185002;28;20026;-78
2021/06/29 01:11:30;;;;;;;17.33;3.40;;;;;;;19.76;100.00;100323.66;5184415;28;20040;-78
2021/06/29 01:14:15;;;;;;;22.05;3.60;;;;;;;19.68;100.00;100320.75;5180903;28;20033;-78
2021/06/29 01:16:45;;;;;;;22.10;3.95;;;;;;;19.57;100.00;100318.91;5183444;28;20026;-78
2021/06/29 01:19:20;;;;;;;33.10;4.10;;;;;;;19.54;100.00;100329.75;5186458;28;20041;-78
2021/06/29 01:21:52;;;;;;;24.27;3.92;;;;;;;19.45;100.00;100327.78;5187584;28;20026;-78
2021/06/29 01:24:29;;;;;;;24.17;3.60;;;;;;;19.57;100.00;100332.16;5189124;28;20399;-78
2021/06/29 01:32:28;;;;;;;31.23;4.22;;;;;;;19.41;100.00;100366.09;5190054;28;20053;-78
2021/06/29 01:35:03;;;;;;;25.58;3.83;;;;;;;19.19;100.00;100429.63;5190129;28;20059;-77
2021/06/29 01:37:35;;;;;;;17.02;4.28;;;;;;;19.38;100.00;100427.31;5191710;28;20029;-78
2021/06/29 01:42:42;;;;;;;15.95;3.97;;;;;;;19.63;100.00;100418.38;5180940;28;20040;-78
2021/06/29 01:45:13;;;;;;;10.38;4.18;;;;;;;19.76;100.00;100409.38;5184007;28;20025;-78
2021/06/29 01:50:16;;;;;;;17.83;3.80;;;;;;;20.00;100.00;100415.47;5181521;28;20018;-78
2021/06/29 01:52:52;;;;;;;17.80;4.10;;;;;;;19.93;100.00;100405.44;5190516;28;20084;-78
2021/06/29 01:55:23;;;;;;;13.27;3.10;;;;;;;19.91;100.00;100402.91;5192720;28;20034;-78
2021/06/29 01:57:53;;;;;;;21.10;4.35;;;;;;;19.75;100.00;100402.38;5192972;28;20542;-78
2021/06/29 02:00:23;;;;;;;16.88;3.65;;;;;;;19.89;100.00;100407.47;5192817;28;20042;-79
2021/06/29 02:02:54;;;;;;;15.93;3.53;;;;;;;19.75;100.00;100396.25;5195548;28;20033;-79
2021/06/29 02:05:25;;;;;;;16.48;3.63;;;;;;;19.88;100.00;100404.94;5193545;28;20033;-79
2021/06/29 02:07:55;;;;;;;18.60;3.45;;;;;;;19.99;100.00;100400.47;5194885;28;20033;-79
2021/06/29 02:10:26;;;;;;;19.63;3.42;;;;;;;20.04;100.00;100393.06;5195637;28;20049;-79
2021/06/29 02:12:57;;;;;;;20.02;3.60;;;;;;;19.80;100.00;100389.59;5187225;28;20028;-79
2021/06/29 02:15:28;;;;;;;20.17;3.75;;;;;;;19.73;100.00;100387.53;5188691;28;20415;-79
2021/06/29 02:17:58;;;;;;;22.33;3.50;;;;;;;19.84;100.00;100391.06;5192026;28;20029;-79
2021/06/29 02:20:29;;;;;;;25.77;3.90;;;;;;;19.83;100.00;100394.69;5182904;28;20030;-79
2021/06/29 02:22:59;;;;;;;22.02;3.88;;;;;;;20.05;100.00;100389.47;5190992;28;20099;-79
2021/06/29 02:25:29;;;;;;;22.35;4.10;;;;;;;19.58;100.00;100396.66;5195278;28;20048;-79
2021/06/29 02:28:00;;;;;;;19.27;3.20;;;;;;;19.70;100.00;100401.88;5195056;28;20109;-79
2021/06/29 02:30:30;;;;;;;20.40;3.63;;;;;;;19.79;100.00;100390.56;5192680;28;20037;-79
2021/06/29 02:33:01;;;;;;;27.85;3.67;;;;;;;19.63;100.00;100397.97;5194466;28;20418;-79
2021/06/29 02:35:31;;;;;;;17.10;3.50;;;;;;;19.87;100.00;100400.59;5193444;28;20384;-79
2021/06/29 02:38:06;;;;;;;18.63;3.42;;;;;;;19.88;100.00;100404.94;5193579;28;20170;-79
2021/06/29 02:40:36;;;;;;;15.95;3.17;;;;;;;20.03;100.00;100403.78;5192224;28;20495;-79
2021/06/29 02:43:07;;;;;;;11.57;3.10;;;;;;;20.01;100.00;100397.72;5186460;28;20145;-79
2021/06/29 02:45:37;;;;;;;11.10;3.25;;;;;;;20.07;100.00;100386.66;5187910;28;20030;-79
2021/06/29 02:48:08;;;;;;;10.07;3.17;;;;;;;20.15;100.00;100401.03;5191256;28;20045;-79
2021/06/29 02:50:40;;;;;;;12.30;3.53;;;;;;;20.05;100.00;100404.50;5184247;28;20654;-79
2021/06/29 02:53:10;;;;;;;11.77;3.63;;;;;;;19.95;100.00;100407.00;5194301;28;20464;-79
2021/06/29 02:55:40;;;;;;;14.95;3.53;;;;;;;19.90;100.00;100400.34;5195614;28;20041;-79
2021/06/29 02:58:11;;;;;;;16.60;3.70;;;;;;;20.05;100.00;100400.06;5199237;28;20044;-79
2021/06/29 03:00:41;;;;;;;19.00;3.78;;;;;;;19.96;100.00;100390.13;5193693;28;20060;-79
2021/06/29 03:03:11;;;;;;;11.95;3.90;;;;;;;20.01;100.00;100398.59;5196286;28;20030;-79
2021/06/29 03:05:42;;;;;;;9.70;3.30;;;;;;;19.84;100.00;100385.78;5191848;28;20033;-79
2021/06/29 03:08:12;;;;;;;7.80;2.85;;;;;;;20.05;100.00;100388.59;5195828;28;20280;-80
2021/06/29 03:10:42;;;;;;;10.05;3.53;;;;;;;19.88;100.00;100389.88;5192631;28;20034;-80
2021/06/29 03:13:12;;;;;;;8.43;3.10;;;;;;;20.02;100.00;100397.66;5188513;28;20524;-79
2021/06/29 03:15:43;;;;;;;8.98;3.65;;;;;;;20.08;100.00;100388.34;5192390;28;20022;-80
2021/06/29 03:18:13;;;;;;;8.57;3.00;;;;;;;19.75;100.00;100369.72;5191219;28;20026;-80
2021/06/29 03:20:43;;;;;;;6.57;3.47;;;;;;;19.91;100.00;100378.16;5183587;28;20025;-79
2021/06/29 03:23:14;;;;;;;8.60;2.83;;;;;;;19.83;100.00;100380.56;5192081;28;20112;-80
2021/06/29 03:25:44;;;;;;;4.60;2.65;;;;;;;19.86;100.00;100372.38;5194331;28;20049;-79
2021/06/29 03:28:16;;;;;;;8.30;2.88;;;;;;;19.87;100.00;100364.31;5190301;28;20168;-79
2021/06/29 03:30:46;;;;;;;8.68;2.58;;;;;;;19.60;100.00;100358.44;5192885;28;20026;-79
2021/06/29 03:33:17;;;;;;;8.02;2.90;;;;;;;19.64;100.00;100356.41;5194712;28;20032;-79
2021/06/29 03:35:47;;;;;;;6.05;2.60;;;;;;;19.64;100.00;100361.72;5191607;28;20468;-79
2021/06/29 03:38:18;;;;;;;7.88;2.47;;;;;;;19.67;100.00;100350.88;5194632;28;20033;-79
2021/06/29 03:40:48;;;;;;;4.80;2.50;;;;;;;19.76;100.00;100344.88;5192749;28;20044;-79
2021/06/29 03:43:18;;;;;;;5.53;2.38;;;;;;;19.83;100.00;100341.63;5185840;28;20399;-79
2021/06/29 03:45:48;;;;;;;5.28;2.20;;;;;;;19.85;100.00;100326.44;5188020;28;20365;-78
2021/06/29 03:48:19;;;;;;;6.03;2.53;;;;;;;19.76;100.00;100305.94;5188201;28;20060;-79
2021/06/29 03:50:49;;;;;;;4.00;1.98;;;;;;;19.86;100.00;100292.78;5181680;28;20790;-78
2021/06/29 03:53:19;;;;;;;5.10;2.47;;;;;;;19.60;100.00;100307.25;5191302;28;20499;-78
2021/06/29 03:55:50;;;;;;;4.78;2.47;;;;;;;19.72;100.00;100328.34;5191380;28;20009;-78
2021/06/29 03:58:21;;;;;;;4.40;2.28;;;;;;;19.51;100.00;100342.38;5190724;28;20038;-77
2021/06/29 04:00:51;;;;;;;7.80;2.90;;;;;;;19.34;100.00;100338.38;5191581;28;20029;-78
2021/06/29 04:03:21;;;;;;;5.18;2.60;;;;;;;19.46;100.00;100329.47;5191595;28;20034;-78
2021/06/29 04:05:52;;;;;;;8.02;2.53;;;;;;;19.74;100.00;100323.75;5193075;28;20022;-78
2021/06/29 04:08:22;;;;;;;4.60;2.55;;;;;;;19.85;100.00;100302.56;5190489;28;20508;-78
2021/06/29 04:10:52;;;;;;;6.05;3.17;;;;;;;19.62;100.00;100287.56;5193071;28;20109;-78
2021/06/29 04:13:22;;;;;;;8.38;3.85;;;;;;;19.57;100.00;100295.03;5183729;28;20095;-78
2021/06/29 04:15:53;;;;;;;7.40;3.90;;;;;;;19.64;100.00;100304.22;5188297;28;20438;-78
2021/06/29 04:18:23;;;;;;;6.97;4.03;;;;;;;19.68;100.00;100311.00;5190170;28;20279;-78
2021/06/29 04:20:53;;;;;;;7.35;3.70;;;;;;;19.59;100.00;100311.69;5184382;28;20117;-78
2021/06/29 04:23:24;;;;;;;9.93;4.47;;;;;;;19.60;100.00;100310.72;5192220;28;20491;-78
2021/06/29 04:25:54;;;;;;;9.02;3.90;;;;;;;19.84;100.00;100306.19;5190328;28;20034;-78
2021/06/29 04:28:24;;;;;;;8.95;3.67;;;;;;;19.83;100.00;100299.19;5194195;28;20036;-78
2021/06/29 04:30:55;;;;;;;6.38;3.10;;;;;;;20.02;100.00;100298.63;5189807;28;20022;-78
2021/06/29 04:33:25;;;;;;;4.15;2.75;;;;;;;19.85;100.00;100296.41;5189120;28;20507;-78
2021/06/29 04:35:55;;;;;;;6.68;2.50;;;;;;;19.98;100.00;100292.66;5189749;28;20040;-78
2021/06/29 04:38:26;;;;;;;4.05;2.50;;;;;;;20.05;100.00;100304.53;5188911;28;20421;-78
2021/06/29 04:40:56;;;;;;;5.18;3.20;;;;;;;19.75;100.00;100320.16;5185568;28;20123;-78
2021/06/29 04:43:27;;;;;;;4.07;2.50;;;;;;;19.68;100.00;100342.81;5188982;28;20026;-78
2021/06/29 04:45:57;;;;;;;8.07;3.00;;;;;;;19.73;100.00;100355.69;5190470;28;20343;-78
2021/06/29 04:48:28;;;;;;;8.13;3.40;;;;;;;19.36;100.00;100362.97;5191556;28;20030;-79
2021/06/29 04:50:58;;;;;;;8.05;3.92;;;;;;;19.41;100.00;100365.28;5188177;28;20113;-79
2021/06/29 04:53:28;;;;;;;10.30;4.00;;;;;;;19.42;100.00;100356.34;5192156;28;20552;-78
2021/06/29 04:55:59;;;;;;;8.18;4.18;;;;;;;19.46;100.00;100363.13;5190739;28;20029;-78
2021/06/29 04:58:29;;;;;;;9.35;4.60;;;;;;;19.44;100.00;100359.72;5193077;28;20034;-78
2021/06/29 05:01:00;;;;;;;10.77;4.40;;;;;;;19.36;100.00;100355.00;5190714;28;20673;-79
2021/06/29 05:03:30;;;;;;;11.45;4.22;;;;;;;19.52;100.00;100336.13;5195589;28;20288;-78
2021/06/29 05:06:00;;;;;;;7.00;3.72;;;;;;;19.58;100.00;100333.84;5194779;28;20065;-78
2021/06/29 05:08:31;;;;;;;10.40;3.80;;;;;;;19.60;100.00;100331.94;5193751;28;20026;-78
2021/06/29 05:11:02;;;;;;;10.80;4.18;;;;;;;19.72;100.00;100341.59;5194815;28;20351;-78
2021/06/29 05:13:32;;;;;;;6.88;3.80;;;;;;;19.60;100.00;100347.00;5182944;28;20125;-78
2021/06/29 05:16:03;;;;;;;7.78;3.72;;;;;;;19.41;100.00;100347.53;5193103;28;20472;-78
2021/06/29 05:18:33;;;;;;;9.10;4.18;;;;;;;19.41;100.00;100346.72;5194779;28;20383;-79
2021/06/29 05:21:22;;;;;;;10.45;3.53;;;;;;;19.54;100.00;100344.81;5169207;28;20068;-79
2021/06/29 05:23:52;;;;;;;7.38;4.00;;;;;;;19.59;100.00;100338.19;5195657;28;20093;-79
2021/06/29 05:26:22;;;;;;;7.25;3.40;;;;;;;19.51;100.00;100345.91;5196123;28;20025;-79
2021/06/29 05:28:53;;;;;;;5.88;3.10;;;;;;;19.65;100.00;100337.72;5195773;28;20438;-79
2021/06/29 05:31:23;;;;;;;4.20;2.60;;;;;;;19.73;100.00;100326.53;5193462;28;20033;-79
2021/06/29 05:33:53;;;;;;;7.25;2.78;;;;;;;19.81;100.00;100324.13;5192507;28;20037;-79
2021/06/29 05:36:27;;;;;;;7.07;3.00;;;;;;;19.88;100.00;100315.59;5195031;28;20553;-79
2021/06/29 05:38:57;;;;;;;8.38;3.10;;;;;;;19.85;100.00;100321.16;5194920;28;20276;-79
2021/06/29 05:41:27;;;;;;;8.60;2.80;;;;;;;19.81;100.00;100321.50;5193550;28;20720;-79
2021/06/29 05:43:57;;;;;;;4.30;2.80;;;;;;;20.05;100.00;100304.53;5184047;28;20033;-79
2021/06/29 05:46:28;;;;;;;5.00;2.90;;;;;;;20.25;100.00;100306.47;5193013;28;20037;-80
2021/06/29 05:48:58;;;;;;;6.35;2.95;;;;;;;20.11;100.00;100295.25;5187975;28;20279;-79
2021/06/29 05:51:28;;;;;;;5.45;2.80;;;;;;;20.11;100.00;100284.63;5189588;28;20040;-80
2021/06/29 05:53:59;;;;;;;8.27;3.30;;;;;;;19.77;100.00;100286.38;5194706;28;20188;-80
2021/06/29 05:56:29;;;;;;;7.15;3.47;;;;;;;20.32;100.00;100270.47;5193629;28;20030;-80
2021/06/29 05:58:59;;;;;;;6.28;2.92;;;;;;;20.21;100.00;100261.69;5196284;28;20525;-80
2021/06/29 06:01:30;;;;;;;4.97;2.95;;;;;;;20.33;100.00;100266.03;5193453;28;20034;-80
2021/06/29 06:04:00;;;;;;;7.25;3.17;;;;;;;20.26;100.00;100270.97;5196163;28;20082;-80
2021/06/29 06:06:30;;;;;;;8.23;4.03;;;;;;;20.14;100.00;100277.25;5193785;28;20032;-80
2021/06/29 06:09:01;;;;;;;7.65;4.00;;;;;;;19.86;100.00;100276.88;5196847;28;20299;-80
2021/06/29 06:11:31;;;;;;;8.00;3.95;;;;;;;19.84;100.00;100282.31;5195034;28;20026;-80
2021/06/29 06:14:01;;;;;;;7.88;3.70;;;;;;;19.98;100.00;100275.91;5191395;28;20026;-80
2021/06/29 06:16:32;;;;;;;7.07;3.78;;;;;;;20.20;100.00;100281.25;5189562;28;20077;-80
2021/06/29 06:19:04;;;;;;;9.32;3.60;;;;;;;20.08;100.00;100282.19;5188541;28;20151;-80
2021/06/29 06:21:34;;;;;;;7.55;3.88;;;;;;;19.89;100.00;100281.94;5189825;28;20023;-80
2021/06/29 06:24:06;;;;;;;7.55;3.13;;;;;;;19.78;100.00;100280.13;5193287;28;20389;-80
2021/06/29 06:26:36;;;;;;;6.45;3.25;;;;;;;20.08;100.00;100277.75;5197870;28;20040;-80
2021/06/29 06:29:07;;;;;;;6.13;3.05;;;;;;;20.18;100.00;100278.72;5192786;28;20120;-80
2021/06/29 06:31:37;;;;;;;10.32;3.88;;;;;;;20.08;100.00;100291.03;5196341;28;20029;-80
2021/06/29 06:34:07;;;;;;;8.27;3.20;;;;;;;20.25;100.00;100301.16;5192015;28;20018;-80
2021/06/29 06:36:38;;;;;;;6.28;3.00;;;;;;;20.16;100.00;100301.88;5197394;28;20022;-80
2021/06/29 06:39:08;;;;;;;9.77;3.50;;;;;;;20.03;100.00;100308.25;5192284;28;20049;-80
2021/06/29 06:41:38;;;;;;;5.85;2.83;;;;;;;20.17;100.00;100308.88;5195919;28;20029;-80
2021/06/29 06:44:09;;;;;;;6.13;2.90;;;;;;;20.07;100.00;100326.50;5184656;28;20026;-80
2021/06/29 06:46:39;;;;;;;3.95;2.40;;;;;;;20.10;100.00;100320.09;5192796;28;20021;-80
2021/06/29 06:49:09;;;;;;;6.38;2.85;;;;;;;20.17;100.00;100303.59;5188363;28;20446;-80
2021/06/29 06:51:40;;;;;;;6.60;2.67;;;;;;;20.43;100.00;100289.06;5187522;28;20113;-80
2021/06/29 06:54:10;;;;;;;5.07;2.83;;;;;;;20.64;100.00;100286.50;5187929;28;20025;-81
2021/06/29 06:56:40;;;;;;;5.70;2.63;;;;;;;20.46;100.00;100286.16;5196263;28;20053;-81
2021/06/29 06:59:11;;;;;;;6.18;3.10;;;;;;;20.15;100.00;100294.88;5193542;28;20273;-81
2021/06/29 07:01:43;;;;;;;6.38;3.00;;;;;;;20.12;100.00;100297.78;5197924;28;20025;-81
2021/06/29 07:04:13;;;;;;;10.88;3.50;;;;;;;19.78;100.00;100298.69;5192892;28;20093;-80
2021/06/29 07:06:43;;;;;;;8.23;3.75;;;;;;;19.90;100.00;100294.22;5195751;28;20084;-80
2021/06/29 07:09:15;;;;;;;7.90;4.20;;;;;;;19.99;100.00;100291.69;5191599;28;20172;-80
2021/06/29 07:11:45;;;;;;;6.53;3.72;;;;;;;20.18;100.00;100283.19;5193785;28;20017;-80
2021/06/29 07:14:17;;;;;;;5.43;3.42;;;;;;;20.42;100.00;100282.06;5183480;28;20022;-80
2021/06/29 07:16:47;;;;;;;6.55;3.35;;;;;;;20.52;100.00;100272.41;5191879;28;20094;-80
2021/06/29 07:19:18;;;;;;;7.75;3.70;;;;;;;20.72;100.00;100275.09;5187182;28;20097;-80
2021/06/29 07:21:48;;;;;;;7.00;3.70;;;;;;;20.82;100.00;100276.03;5189119;28;20468;-80
2021/06/29 07:24:18;;;;;;;8.70;3.70;;;;;;;20.81;100.00;100284.13;5193799;28;20098;-80
2021/06/29 07:26:49;;;;;;;7.22;3.53;;;;;;;20.75;100.00;100295.28;5195742;28;20282;-80
2021/06/29 07:29:19;;;;;;;6.25;3.50;;;;;;;20.82;100.00;100296.44;5194022;28;20030;-81
2021/06/29 07:31:50;;;;;;;6.93;3.47;;;;;;;20.98;100.00;100291.59;5196049;28;20120;-80
2021/06/29 07:34:20;;;;;;;5.00;3.10;;;;;;;21.13;100.00;100293.84;5193617;28;20022;-81
2021/06/29 07:36:50;;;;;;;6.97;3.15;;;;;;;21.25;100.00;100299.94;5194993;28;20396;-81
2021/06/29 07:39:21;;;;;;;4.78;3.22;;;;;;;21.15;100.00;100291.03;5196060;28;20033;-80
2021/06/29 07:41:51;;;;;;;6.78;3.17;;;;;;;21.22;100.00;100290.41;5198315;28;20048;-80
2021/06/29 07:44:22;;;;;;;5.88;3.42;;;;;;;21.07;100.00;100285.53;5187122;28;20042;-80
2021/06/29 07:46:52;;;;;;;7.57;3.50;;;;;;;20.97;100.00;100281.94;5196437;28;20084;-81
2021/06/29 07:49:23;;;;;;;9.27;3.63;;;;;;;20.94;100.00;100280.38;5189864;28;20522;-81
2021/06/29 07:51:53;;;;;;;5.85;3.63;;;;;;;20.87;100.00;100281.84;5189665;28;20040;-80
2021/06/29 07:54:24;;;;;;;6.43;3.30;;;;;;;21.02;100.00;100277.06;5197954;28;20025;-80
2021/06/29 07:56:54;;;;;;;6.95;3.10;;;;;;;21.30;100.00;100277.31;5196541;28;20350;-81
2021/06/29 07:59:25;;;;;;;5.75;3.30;;;;;;;21.12;100.00;100278.84;5196191;28;20038;-80
2021/06/29 08:01:56;;;;;;;6.10;3.35;;;;;;;20.83;100.00;100276.88;5195477;28;20037;-80
2021/06/29 08:04:26;;;;;;;5.82;2.83;;;;;;;20.99;100.00;100272.88;5195821;28;20542;-81
2021/06/29 08:06:56;;;;;;;5.88;3.55;;;;;;;20.89;100.00;100277.25;5196941;28;20028;-81
2021/06/29 08:09:27;;;;;;;7.20;3.38;;;;;;;20.83;100.00;100282.19;5195744;28;20029;-80
2021/06/29 08:11:57;;;;;;;7.10;3.60;;;;;;;21.09;100.00;100280.91;5195753;28;20030;-79
2021/06/29 08:14:27;;;;;;;8.60;3.70;;;;;;;21.22;100.00;100284.25;5186177;28;20076;-81
2021/06/29 08:16:58;;;;;;;6.28;3.70;;;;;;;21.18;100.00;100278.34;5195326;28;20059;-81
2021/06/29 08:19:28;;;;;;;5.32;3.58;;;;;;;21.32;100.00;100287.81;5189947;28;20091;-81
2021/06/29 08:21:59;;;;;;;7.72;3.85;;;;;;;21.42;100.00;100289.56;5188759;28;20056;-81
2021/06/29 08:24:29;;;;;;;7.05;3.33;;;;;;;21.38;100.00;100290.78;5197631;28;20590;-80
2021/06/29 08:26:59;;;;;;;7.35;3.88;;;;;;;21.30;100.00;100297.72;5193911;28;20025;-80
2021/06/29 08:29:30;;;;;;;9.63;4.50;;;;;;;21.25;100.00;100295.44;5197475;28;20030;-80
2021/06/29 08:32:00;;;;;;;8.30;4.50;;;;;;;21.22;100.00;100294.88;5196497;28;20121;-81
2021/06/29 08:34:30;;;;;;;12.67;5.30;;;;;;;21.03;100.00;100300.03;5196085;28;20029;-81
2021/06/29 08:37:01;;;;;;;8.90;4.25;;;;;;;21.02;100.00;100298.31;5196439;28;20428;-81
2021/06/29 08:39:31;;;;;;;6.35;4.47;;;;;;;21.10;100.00;100295.91;5197520;28;20061;-80
2021/06/29 08:42:02;;;;;;;6.88;4.30;;;;;;;21.29;100.00;100301.34;5195406;28;20120;-80
2021/06/29 08:44:32;;;;;;;7.13;3.60;;;;;;;21.45;100.00;100304.41;5188592;28;20468;-80
2021/06/29 08:47:02;;;;;;;6.63;4.43;;;;;;;21.17;100.00;100297.91;5197503;28;20021;-80
2021/06/29 08:49:33;;;;;;;12.98;4.97;;;;;;;21.17;100.00;100297.06;5186070;28;20635;-81
2021/06/29 08:52:09;;;;;;;7.57;4.55;;;;;;;21.32;100.00;100299.31;5190432;28;20018;-81
2021/06/29 08:54:40;;;;;;;8.70;4.20;;;;;;;21.32;100.00;100296.63;5197671;28;20018;-81
2021/06/29 08:57:10;;;;;;;7.70;3.75;;;;;;;21.50;100.00;100288.91;5194340;28;20029;-80
2021/06/29 08:59:41;;;;;;;8.55;3.83;;;;;;;21.26;100.00;100297.13;5196916;28;20172;-80
2021/06/29 09:02:12;;;;;;;5.65;3.40;;;;;;;21.27;100.00;100292.66;5189673;28;20060;-81
2021/06/29 09:04:50;;;;;;;8.20;3.70;;;;;;;21.00;100.00;100294.97;5198544;28;20045;-80
2021/06/29 09:07:28;;;;;;;6.35;3.50;;;;;;;21.11;100.00;100286.94;5196329;28;20029;-81
2021/06/29 09:09:59;;;;;;;6.13;3.22;;;;;;;21.30;100.00;100287.09;5195610;28;20056;-80
2021/06/29 09:12:49;;;;;;;8.55;3.60;;;;;;;21.22;100.00;100281.59;5194111;28;20038;-80
2021/06/29 09:15:39;;;;;;;5.72;3.28;;;;;;;21.28;100.00;100283.72;5196027;28;20499;-80
2021/06/29 09:18:10;;;;;;;7.15;2.80;;;;;;;21.40;100.00;100282.69;5193666;28;20066;-80
2021/06/29 09:20:46;;;;;;;6.80;3.20;;;;;;;21.47;100.00;100281.19;5186298;28;20472;-80
2021/06/29 09:23:36;;;;;;;5.47;3.10;;;;;;;21.45;100.00;100286.66;5194499;28;20085;-80
2021/06/29 09:26:09;;;;;;;7.30;3.05;;;;;;;21.62;100.00;100283.44;5194304;28;20088;-80
2021/06/29 09:28:45;;;;;;;7.18;2.70;;;;;;;21.62;100.00;100283.44;5197766;28;20352;-80
2021/06/29 09:31:18;;;;;;;3.65;2.42;;;;;;;21.52;100.00;100274.50;5190542;28;20391;-80
2021/06/29 09:33:58;;;;;;;4.05;2.72;;;;;;;21.49;100.00;100280.09;5197060;28;20510;-81
2021/06/29 09:36:31;;;;;;;4.82;2.10;;;;;;;21.57;100.00;100280.28;5195191;28;20091;-81
2021/06/29 09:39:08;;;;;;;8.23;2.80;;;;;;;21.65;100.00;100277.84;5195457;28;20115;-81
2021/06/29 09:41:41;;;;;;;3.17;2.20;;;;;;;21.94;100.00;100275.34;5194427;28;20148;-81
2021/06/29 09:44:14;;;;;;;6.53;2.80;;;;;;;21.85;100.00;100278.78;5184814;28;20105;-80
2021/06/29 09:46:45;;;;;;;5.22;2.78;;;;;;;22.07;100.00;100267.97;5193417;28;20108;-80
2021/06/29 09:49:16;;;;;;;8.48;2.70;;;;;;;21.83;100.00;100275.41;5187202;28;20183;-80
2021/06/29 09:51:50;;;;;;;5.28;2.70;;;;;;;21.87;100.00;100277.69;5188920;28;20052;-81
2021/06/29 09:54:22;;;;;;;6.18;3.00;;;;;;;21.90;100.00;100273.94;5192740;28;20060;-80
2021/06/29 09:56:52;;;;;;;5.97;2.50;;;;;;;22.22;100.00;100263.97;5195621;28;20111;-80
2021/06/29 09:59:24;;;;;;;7.10;3.40;;;;;;;22.18;100.00;100266.06;5192402;28;20515;-80
2021/06/29 10:02:11;;;;;;;4.40;3.10;;;;;;;22.18;100.00;100266.06;5195066;28;20499;-81
2021/06/29 10:04:43;;;;;;;7.95;3.38;;;;;;;22.02;100.00;100264.84;5188637;28;20026;-80
2021/06/29 10:07:14;;;;;;;7.90;4.10;;;;;;;22.12;100.00;100271.91;5196749;28;20096;-81
2021/06/29 10:09:45;;;;;;;7.68;3.80;;;;;;;22.47;100.00;100264.34;5192212;28;20028;-80
2021/06/29 10:12:24;;;;;;;12.20;4.07;;;;;;;22.42;100.00;100258.56;5191081;28;20025;-80
2021/06/29 10:14:54;;;;;;;5.75;4.18;;;;;;;22.17;100.00;100256.38;5196634;28;20566;-80
2021/06/29 10:17:24;;;;;;;10.38;4.75;;;;;;;22.06;100.00;100255.66;5194045;28;20040;-81
2021/06/29 10:20:24;;;;;;;10.15;5.82;;;;;;;21.85;100.00;100252.16;5183117;28;20026;-80
2021/06/29 10:22:57;;;;;;;10.55;5.03;;;;;;;22.22;100.00;100261.31;5189928;28;20028;-81
2021/06/29 10:25:27;;;;;;;7.90;4.97;;;;;;;22.24;100.00;100256.69;5191528;28;20042;-81
2021/06/29 10:27:58;;;;;;;7.75;4.60;;;;;;;22.51;100.00;100252.44;5189232;28;20032;-81
2021/06/29 10:30:29;;;;;;;8.07;4.88;;;;;;;22.33;100.00;100266.50;5185137;28;20030;-81
2021/06/29 10:33:01;;;;;;;6.90;4.53;;;;;;;22.42;100.00;100268.41;5192504;28;20029;-81
2021/06/29 10:35:32;;;;;;;8.85;4.30;;;;;;;22.33;100.00;100263.84;5191834;28;20101;-81
2021/06/29 10:38:03;;;;;;;6.40;3.45;;;;;;;22.57;100.00;100256.38;5195628;28;20025;-81
2021/06/29 10:40:34;;;;;;;8.10;3.60;;;;;;;22.47;100.00;100267.00;5193851;28;20022;-81
2021/06/29 10:43:05;;;;;;;7.75;3.50;;;;;;;22.75;100.00;100261.72;5192837;28;20032;-81
2021/06/29 10:45:37;;;;;;;6.60;3.10;;;;;;;23.01;100.00;100262.03;5196825;28;20026;-80
2021/06/29 10:48:17;;;;;;;5.72;3.00;;;;;;;22.91;100.00;100255.84;5191515;28;20084;-81
2021/06/29 10:50:50;;;;;;;5.30;2.50;;;;;;;22.89;100.00;100248.00;5179778;28;20084;-81
2021/06/29 10:53:35;;;;;;;5.22;2.60;;;;;;;23.26;100.00;100245.47;5192983;28;20443;-82
2021/06/29 10:56:17;;;;;;;4.25;2.10;;;;;;;23.53;99.87;100243.72;5193191;28;20499;-81
2021/06/29 10:58:50;;;;;;;6.38;2.40;;;;;;;23.25;100.00;100241.13;5189945;28;20096;-81
2021/06/29 11:01:34;;;;;;;7.28;3.00;;;;;;;23.52;100.00;100244.72;5194595;28;20113;-81
2021/06/29 11:04:05;;;;;;;4.80;2.30;;;;;;;23.51;97.76;100248.38;5192696;28;20306;-82
2021/06/29 11:06:42;;;;;;;5.32;2.03;;;;;;;23.40;97.96;100248.50;5192981;28;20492;-81
2021/06/29 11:09:20;;;;;;;5.80;1.90;;;;;;;23.67;97.47;100239.78;5188914;28;20025;-81
2021/06/29 11:12:23;;;;;;;7.13;2.13;;;;;;;23.83;94.16;100240.00;5196803;28;20496;-81
2021/06/29 11:14:56;;;;;;;4.55;1.90;;;;;;;24.06;90.68;100241.31;5191561;28;20033;-81
2021/06/29 11:17:49;;;;;;;3.30;1.58;;;;;;;23.95;89.53;100231.69;5198580;28;20029;-81
2021/06/29 11:20:25;;;;;;;3.45;2.10;;;;;;;23.37;96.37;100235.47;5197990;28;20363;-81
2021/06/29 11:23:04;;;;;;;4.78;1.80;;;;;;;23.59;99.94;100235.16;5199465;28;20021;-81
2021/06/29 11:25:40;;;;;;;5.15;2.20;;;;;;;23.64;97.74;100224.88;5195812;28;20116;-81
2021/06/29 11:28:10;;;;;;;8.55;2.00;;;;;;;24.01;100.00;100223.06;5198788;28;20033;-81
2021/06/29 11:30:50;;;;;;;2.30;1.60;;;;;;;24.62;89.56;100220.63;5194830;28;20030;-81
2021/06/29 11:33:37;;;;;;;2.83;1.52;;;;;;;24.57;92.65;100214.91;5194804;28;20276;-81
2021/06/29 11:36:23;;;;;;;4.10;1.80;;;;;;;24.58;92.06;100225.44;5197941;28;20576;-81
2021/06/29 11:39:00;;;;;;;4.45;1.65;;;;;;;24.49;89.58;100212.09;5193478;28;20033;-81
2021/06/29 11:41:33;;;;;;;8.35;1.52;;;;;;;24.54;88.77;100204.53;5197195;28;20034;-80
2021/06/29 11:44:06;;;;;;;2.40;1.38;;;;;;;24.98;83.28;100207.09;5187027;28;20029;-81
2021/06/29 11:47:05;;;;;;;3.95;1.58;;;;;;;25.19;85.92;100210.31;5192193;28;20056;-80